createdAt,value
2022-11-09T00:01:26.854Z,25.60
2022-11-09T00:06:26.625Z,24.20
2022-11-09T00:11:24.955Z,24.30
2022-11-09T00:16:25.111Z,25.00
2022-11-09T00:21:25.274Z,25.50
2022-11-09T00:26:25.476Z,24.30
2022-11-09T00:31:26.513Z,23.70
2022-11-09T00:36:26.804Z,23.80
2022-11-09T00:41:26.278Z,24.00
2022-11-09T00:46:25.266Z,23.70
2022-11-09T00:51:25.153Z,24.10
2022-11-09T00:56:25.005Z,23.50
2022-11-09T01:01:25.103Z,23.40
2022-11-09T01:06:26.400Z,23.80
2022-11-09T01:11:25.008Z,22.80
2022-11-09T01:16:25.609Z,24.00
2022-11-09T01:21:26.206Z,23.20
2022-11-09T01:26:24.878Z,23.50
2022-11-09T01:31:25.054Z,23.70
2022-11-09T01:36:26.001Z,23.50
2022-11-09T01:41:26.840Z,23.50
2022-11-09T01:46:32.638Z,23.20
2022-11-09T01:51:30.919Z,23.80
2022-11-09T01:56:26.566Z,23.80
2022-11-09T02:01:25.279Z,23.50
2022-11-09T02:06:28.134Z,23.60
2022-11-09T02:11:26.573Z,23.70
2022-11-09T02:16:26.558Z,24.40
2022-11-09T02:21:27.136Z,24.10
2022-11-09T02:26:29.220Z,23.30
2022-11-09T02:31:30.271Z,23.20
2022-11-09T02:36:25.149Z,23.00
2022-11-09T02:41:26.905Z,23.50
2022-11-09T02:46:31.142Z,24.50
2022-11-09T02:51:25.109Z,23.60
2022-11-09T02:56:25.001Z,23.90
2022-11-09T03:01:24.954Z,23.90
2022-11-09T03:06:34.246Z,26.30
2022-11-09T03:11:24.796Z,24.40
2022-11-09T03:16:25.006Z,23.70
2022-11-09T03:21:25.138Z,24.10
2022-11-09T03:26:25.616Z,24.00
2022-11-09T03:31:24.860Z,24.40
2022-11-09T03:36:25.694Z,24.60
2022-11-09T03:41:24.784Z,23.40
2022-11-09T03:46:24.922Z,25.00
2022-11-09T03:51:25.050Z,24.60
2022-11-09T03:56:24.896Z,24.30
2022-11-09T04:01:25.035Z,26.10
2022-11-09T04:06:25.245Z,25.20
2022-11-09T04:11:24.780Z,24.60
2022-11-09T04:16:24.878Z,25.60
2022-11-09T04:21:25.387Z,24.60
2022-11-09T04:26:24.743Z,25.60
2022-11-09T04:31:28.002Z,26.00
2022-11-09T04:36:25.369Z,24.80
2022-11-09T04:41:26.544Z,25.20
2022-11-09T04:46:25.818Z,24.50
2022-11-09T04:51:26.183Z,25.30
2022-11-09T04:56:24.843Z,26.00
2022-11-09T05:01:24.828Z,25.80
2022-11-09T05:06:32.275Z,26.00
2022-11-09T05:11:24.831Z,25.70
2022-11-09T05:16:25.243Z,26.60
2022-11-09T05:21:25.211Z,27.00
2022-11-09T05:26:27.031Z,25.80
2022-11-09T05:31:25.650Z,25.90
2022-11-09T05:36:26.913Z,27.10
2022-11-09T05:41:25.787Z,26.80
2022-11-09T05:46:25.403Z,25.70
2022-11-09T05:51:25.120Z,26.30
2022-11-09T05:56:24.684Z,25.50
2022-11-09T06:01:24.757Z,26.40
2022-11-09T06:06:25.030Z,25.90
2022-11-09T06:11:24.790Z,27.70
2022-11-09T06:16:24.781Z,26.50
2022-11-09T06:21:25.487Z,26.40
2022-11-09T06:26:24.657Z,27.30
2022-11-09T06:31:24.762Z,27.50
2022-11-09T06:36:25.053Z,26.00
2022-11-09T06:41:25.083Z,27.70
2022-11-09T06:46:24.763Z,28.20
2022-11-09T06:51:25.588Z,26.80
2022-11-09T06:56:24.751Z,27.10
2022-11-09T07:01:27.986Z,27.80
2022-11-09T07:06:24.827Z,27.20
2022-11-09T07:11:24.800Z,27.80
2022-11-09T07:16:24.785Z,27.00
2022-11-09T07:21:24.933Z,26.80
2022-11-09T07:26:24.620Z,27.50
2022-11-09T07:31:28.461Z,27.80
2022-11-09T07:36:25.000Z,47.20
2022-11-09T07:41:25.141Z,35.70
2022-11-09T07:46:24.653Z,32.70
2022-11-09T07:51:24.949Z,31.00
2022-11-09T07:56:24.627Z,32.40
2022-11-09T08:01:24.742Z,29.70
2022-11-09T08:06:27.163Z,37.70
2022-11-09T08:11:25.766Z,31.00
2022-11-09T08:16:24.999Z,27.00
2022-11-09T08:21:24.869Z,26.00
2022-11-09T08:26:24.799Z,25.60
2022-11-09T08:31:24.745Z,25.10
2022-11-09T08:36:26.953Z,24.50
2022-11-09T08:41:24.773Z,23.10
2022-11-09T08:46:25.133Z,24.50
2022-11-09T08:51:24.980Z,23.30
2022-11-09T08:56:24.770Z,23.00
2022-11-09T09:01:24.591Z,22.90
2022-11-09T09:06:30.678Z,23.60
2022-11-09T09:11:24.573Z,22.50
2022-11-09T09:16:24.792Z,21.90
2022-11-09T09:21:24.890Z,20.70
2022-11-09T09:26:24.705Z,21.30
2022-11-09T09:31:24.735Z,20.10
2022-11-09T09:36:25.517Z,22.40
2022-11-09T09:41:30.491Z,21.50
2022-11-09T09:46:31.276Z,21.90
2022-11-09T09:51:38.899Z,21.80
2022-11-09T09:56:29.481Z,22.90
2022-11-09T10:01:34.589Z,23.10
2022-11-09T10:06:38.440Z,23.30
2022-11-09T10:11:35.196Z,23.50
2022-11-09T10:16:33.884Z,24.30
2022-11-09T10:21:34.152Z,24.80
2022-11-09T10:26:32.503Z,25.50
2022-11-09T10:31:29.354Z,25.80
2022-11-09T10:36:32.129Z,25.30
2022-11-09T10:41:30.933Z,25.80
2022-11-09T10:46:24.853Z,24.70
2022-11-09T10:51:31.731Z,26.60
2022-11-09T10:56:29.683Z,26.10
2022-11-09T11:01:35.079Z,25.90
2022-11-09T11:06:30.430Z,26.40
2022-11-09T11:11:33.655Z,25.50
2022-11-09T11:16:28.373Z,25.90
2022-11-09T11:21:26.230Z,26.20
2022-11-09T11:26:33.670Z,25.60
2022-11-09T11:31:24.663Z,26.60
2022-11-09T11:36:32.558Z,24.50
2022-11-09T11:41:41.469Z,24.60
2022-11-09T11:46:32.044Z,24.00
2022-11-09T11:51:33.778Z,25.20
2022-11-09T11:56:29.529Z,24.20
2022-11-09T12:01:38.509Z,24.10
2022-11-09T12:06:39.558Z,24.40
2022-11-09T12:11:35.122Z,23.70
2022-11-09T12:16:32.372Z,23.50
2022-11-09T12:21:33.354Z,24.50
2022-11-09T12:26:37.239Z,23.50
2022-11-09T12:31:34.275Z,22.00
2022-11-09T12:36:30.493Z,22.70
2022-11-09T12:41:29.929Z,22.10
2022-11-09T12:46:30.744Z,23.30
2022-11-09T12:51:25.235Z,31.30
2022-11-09T12:56:30.636Z,24.00
2022-11-09T13:01:43.763Z,22.70
2022-11-09T13:06:26.614Z,22.40
2022-11-09T13:11:34.717Z,21.70
2022-11-09T13:16:35.109Z,21.40
2022-11-09T13:21:34.774Z,22.20
2022-11-09T13:26:44.355Z,22.60
2022-11-09T13:31:44.362Z,22.70
2022-11-09T13:36:24.708Z,23.50
2022-11-09T13:41:42.920Z,23.70
2022-11-09T13:46:28.595Z,22.40
2022-11-09T13:51:40.833Z,23.70
2022-11-09T13:56:28.251Z,23.30
2022-11-09T14:01:27.213Z,23.40
2022-11-09T14:06:24.927Z,23.30
2022-11-09T14:11:42.390Z,23.90
2022-11-09T14:16:32.954Z,22.40
2022-11-09T14:21:35.665Z,23.80
2022-11-09T14:26:25.189Z,24.40
2022-11-09T14:31:26.894Z,22.90
2022-11-09T14:36:25.839Z,23.70
2022-11-09T14:41:27.111Z,23.60
2022-11-09T14:46:27.653Z,23.10
2022-11-09T14:51:28.097Z,22.80
2022-11-09T14:56:25.264Z,23.50
2022-11-09T15:01:26.445Z,23.50
2022-11-09T15:06:24.474Z,23.40
2022-11-09T15:11:31.297Z,24.00
2022-11-09T15:16:28.176Z,24.80
2022-11-09T15:21:34.181Z,24.90
2022-11-09T15:26:27.187Z,25.90
2022-11-09T15:31:26.796Z,26.50
2022-11-09T15:36:27.643Z,26.40
2022-11-09T15:41:26.204Z,25.70
2022-11-09T15:46:27.305Z,26.10
2022-11-09T15:51:24.624Z,26.70
2022-11-09T15:56:24.535Z,25.70
2022-11-09T16:01:24.969Z,27.00
2022-11-09T16:06:25.888Z,25.90
2022-11-09T16:11:24.568Z,25.70
2022-11-09T16:16:24.418Z,26.50
2022-11-09T16:21:24.557Z,27.70
2022-11-09T16:26:24.508Z,28.00
2022-11-09T16:31:48.313Z,26.60
2022-11-09T16:36:24.795Z,27.30
2022-11-09T16:41:24.593Z,27.40
2022-11-09T16:46:27.145Z,26.80
2022-11-09T16:51:24.655Z,27.60
2022-11-09T16:56:24.544Z,28.60
2022-11-09T17:01:24.538Z,38.00
2022-11-09T17:06:24.527Z,33.60
2022-11-09T17:11:24.388Z,38.10
2022-11-09T17:16:24.995Z,29.10
2022-11-09T17:21:26.860Z,30.30
2022-11-09T17:26:25.526Z,29.80
2022-11-09T17:31:25.734Z,30.30
2022-11-09T17:36:41.874Z,28.10
2022-11-09T17:41:24.398Z,35.40
2022-11-09T17:46:24.454Z,29.60
2022-11-09T17:51:24.651Z,31.90
2022-11-09T17:56:24.506Z,32.00
2022-11-09T18:01:24.567Z,33.90
2022-11-09T18:06:24.621Z,32.20
2022-11-09T18:11:24.345Z,29.00
2022-11-09T18:16:17.897Z,29.60
2022-11-09T18:16:24.313Z,29.60
2022-11-09T18:21:25.354Z,29.70
2022-11-09T18:26:24.358Z,29.40
2022-11-09T18:27:13.743Z,29.40
2022-11-09T18:31:24.235Z,29.10
2022-11-09T18:36:25.270Z,30.30
2022-11-09T18:41:25.401Z,27.40
2022-11-09T18:46:27.266Z,28.40
2022-11-09T18:51:24.765Z,29.60
2022-11-09T18:56:24.746Z,29.40
2022-11-09T19:01:25.991Z,30.20
2022-11-09T19:06:25.188Z,29.10
2022-11-09T19:11:24.660Z,28.90
2022-11-09T19:16:25.676Z,29.90
2022-11-09T19:21:36.211Z,31.10
2022-11-09T19:26:24.317Z,31.10
2022-11-09T19:31:24.523Z,30.10
2022-11-09T19:36:30.270Z,30.20
2022-11-09T19:41:25.726Z,31.00
2022-11-09T19:46:25.135Z,29.20
2022-11-09T19:51:25.671Z,31.60
2022-11-09T19:56:26.403Z,29.30
2022-11-09T20:01:24.462Z,30.30
2022-11-09T20:06:25.973Z,30.20
2022-11-09T20:11:35.366Z,32.20
2022-11-09T20:16:24.331Z,32.30
2022-11-09T20:21:24.755Z,32.20
2022-11-09T20:26:24.154Z,33.40
2022-11-09T20:31:24.368Z,33.30
2022-11-09T20:36:24.535Z,33.50
2022-11-09T20:41:25.634Z,32.60
2022-11-09T20:46:24.145Z,34.90
2022-11-09T20:51:24.821Z,34.00
2022-11-09T20:56:24.202Z,33.70
2022-11-09T21:01:24.419Z,34.50
2022-11-09T21:01:57.431Z,34.50
2022-11-09T21:06:24.123Z,34.80
2022-11-09T21:11:27.606Z,37.60
2022-11-09T21:16:24.321Z,39.00
2022-11-09T21:21:24.428Z,39.70
2022-11-09T21:26:35.239Z,39.50
2022-11-09T21:31:24.364Z,36.60
2022-11-09T21:36:24.298Z,38.10
2022-11-09T21:41:34.019Z,37.30
2022-11-09T21:46:24.505Z,38.10
2022-11-09T21:51:24.558Z,38.00
2022-11-09T21:56:24.678Z,36.60
2022-11-09T22:01:25.099Z,37.80
2022-11-09T22:06:24.710Z,38.60
2022-11-09T22:11:35.513Z,38.10
2022-11-09T22:16:25.956Z,37.70
2022-11-09T22:21:24.127Z,36.40
2022-11-09T22:26:24.615Z,36.00
2022-11-09T22:31:24.857Z,36.80
2022-11-09T22:36:24.216Z,37.50
2022-11-09T22:41:24.148Z,37.80
2022-11-09T22:46:24.208Z,37.20
2022-11-09T22:51:24.916Z,37.70
2022-11-09T22:56:24.093Z,37.40
2022-11-09T23:01:24.441Z,37.20
2022-11-09T23:06:24.490Z,37.80
2022-11-09T23:11:24.296Z,37.90
2022-11-09T23:16:24.808Z,37.00
2022-11-09T23:21:27.011Z,37.90
2022-11-09T23:26:25.163Z,38.50
2022-11-09T23:31:26.112Z,36.80
2022-11-09T23:36:25.723Z,37.70
2022-11-09T23:41:24.082Z,36.20
2022-11-09T23:46:24.149Z,36.90
2022-11-09T23:51:24.060Z,37.90
2022-11-09T23:56:24.024Z,37.00
